Time;durP1;ratioP1;P1;durP2;ratioP2;P2;SDS_P1;SDS_P2;PMS_P1;PMS_P2;Temp;Humidity;BMP_temperature;BMP_pressure;BME280_temperature;BME280_humidity;BME280_pressure;Samples;Min_cycle;Max_cycle;Signal;HPM_P1;HPM_P2
2023/05/31 00:02:17;;;;;;;7.65;3.80;;;;;;;13.24;61.23;99427.56;5038313;28;20032;-62
2023/05/31 00:04:42;;;;;;;6.32;3.95;;;;;;;13.23;61.26;99431.25;5055495;28;20029;-61
2023/05/31 00:07:08;;;;;;;4.75;4.03;;;;;;;13.20;61.50;99442.31;5055337;28;20086;-61
2023/05/31 00:09:34;;;;;;;7.10;3.67;;;;;;;13.16;62.02;99455.22;5055093;28;20025;-61
2023/05/31 00:12:00;;;;;;;7.28;3.90;;;;;;;13.13;62.13;99471.63;5055457;28;20052;-61
2023/05/31 00:14:26;;;;;;;6.35;3.90;;;;;;;13.11;62.47;99470.09;5055380;28;20162;-63
2023/05/31 00:16:52;;;;;;;6.45;4.05;;;;;;;13.09;62.45;99461.34;5054690;28;20514;-62
2023/05/31 00:19:18;;;;;;;9.98;4.22;;;;;;;13.06;62.72;99449.91;5055241;28;20045;-64
2023/05/31 00:21:45;;;;;;;9.32;5.00;;;;;;;13.02;62.68;99445.84;5055554;28;20037;-60
2023/05/31 00:24:14;;;;;;;7.72;4.38;;;;;;;13.03;62.77;99458.28;5055243;28;20029;-60
2023/05/31 00:26:39;;;;;;;6.05;4.00;;;;;;;13.02;62.55;99456.59;5054945;28;20504;-61
2023/05/31 00:29:05;;;;;;;6.85;4.68;;;;;;;12.93;62.68;99449.41;5055070;28;20025;-63
2023/05/31 00:31:31;;;;;;;6.45;4.43;;;;;;;12.93;62.46;99449.41;5054906;28;20065;-61
2023/05/31 00:33:57;;;;;;;6.68;3.90;;;;;;;12.90;62.74;99447.88;5054667;28;20047;-62
2023/05/31 00:36:23;;;;;;;11.15;4.43;;;;;;;12.91;62.53;99462.13;5055048;28;20071;-62
2023/05/31 00:38:49;;;;;;;8.05;4.10;;;;;;;12.90;62.68;99466.69;5055101;28;20065;-60
2023/05/31 00:41:14;;;;;;;9.75;4.25;;;;;;;12.90;62.98;99463.13;5054325;28;20128;-61
2023/05/31 00:43:40;;;;;;;5.60;3.83;;;;;;;12.89;62.87;99464.13;5054831;28;20037;-62
2023/05/31 00:46:14;;;;;;;4.93;3.22;;;;;;;12.82;62.75;99453.13;5055169;28;20043;-61
2023/05/31 00:48:42;;;;;;;9.75;3.70;;;;;;;12.88;62.55;99465.94;5054548;28;20064;-61
2023/05/31 00:51:08;;;;;;;6.05;3.78;;;;;;;12.89;62.46;99462.25;5054273;28;20036;-61
2023/05/31 00:53:33;;;;;;;6.43;3.60;;;;;;;12.86;62.67;99467.94;5054942;28;20055;-61
2023/05/31 00:56:00;;;;;;;3.60;3.25;;;;;;;12.86;62.65;99469.78;5054732;28;20033;-61
2023/05/31 00:58:27;;;;;;;4.82;3.42;;;;;;;12.84;62.60;99466.41;5036772;28;20029;-61
2023/05/31 01:00:55;;;;;;;6.20;3.47;;;;;;;12.81;62.73;99459.47;5054037;28;20032;-61
2023/05/31 01:03:20;;;;;;;9.23;3.70;;;;;;;12.76;62.71;99451.84;5055286;28;20083;-62
2023/05/31 01:05:46;;;;;;;5.50;3.40;;;;;;;12.78;62.46;99460.63;5054646;28;20033;-62
2023/05/31 01:08:14;;;;;;;5.70;3.38;;;;;;;12.73;62.51;99457.53;5054253;28;20051;-60
2023/05/31 01:10:40;;;;;;;7.50;3.63;;;;;;;12.71;62.60;99462.19;5053104;28;20087;-60
2023/05/31 01:13:51;;;;;;;6.88;3.22;;;;;;;12.86;62.28;99457.19;5054903;28;20040;-60
2023/05/31 01:16:26;;;;;;;5.03;4.15;;;;;;;12.81;62.46;99453.28;4954720;29;20118;-61
2023/05/31 01:18:56;;;;;;;5.90;3.42;;;;;;;12.81;62.70;99453.28;5046548;28;20113;-62
2023/05/31 01:21:37;;;;;;;3.53;2.90;;;;;;;12.83;62.27;99462.03;5053754;28;20403;-70
2023/05/31 01:24:34;;;;;;;8.93;3.22;;;;;;;12.89;62.21;99454.19;5054457;28;20037;-63
2023/05/31 01:27:01;;;;;;;8.93;3.65;;;;;;;12.59;62.41;99425.78;5028781;28;20056;-62
2023/05/31 01:29:30;;;;;;;6.10;3.58;;;;;;;12.72;62.39;99455.84;5054044;28;20060;-62
2023/05/31 01:31:59;;;;;;;9.00;3.50;;;;;;;12.76;62.48;99462.59;5053673;28;20025;-64
2023/05/31 01:34:25;;;;;;;4.35;3.38;;;;;;;12.70;62.58;99455.13;5054195;28;20033;-62
2023/05/31 01:36:50;;;;;;;6.47;3.40;;;;;;;12.70;62.43;99444.41;5054200;28;20116;-61
2023/05/31 01:39:17;;;;;;;5.90;2.97;;;;;;;12.80;62.44;99452.41;5053661;28;20029;-62
2023/05/31 01:41:45;;;;;;;4.40;2.80;;;;;;;12.82;62.20;99463.03;5053436;28;20032;-61
2023/05/31 01:44:13;;;;;;;6.35;3.55;;;;;;;12.88;62.10;99465.94;5054332;28;20040;-61
2023/05/31 01:46:41;;;;;;;4.38;3.30;;;;;;;12.94;62.06;99461.84;5053543;28;20091;-62
2023/05/31 01:49:07;;;;;;;7.38;3.25;;;;;;;12.91;62.06;99448.69;5038679;28;20106;-63
2023/05/31 01:51:36;;;;;;;5.57;2.90;;;;;;;12.93;61.81;99457.44;5033758;28;20449;-62
2023/05/31 01:54:01;;;;;;;4.97;3.20;;;;;;;12.95;62.40;99443.88;5033831;28;20022;-61
2023/05/31 01:56:30;;;;;;;8.23;3.30;;;;;;;12.97;62.21;99452.63;5033837;28;20358;-60
2023/05/31 01:58:58;;;;;;;7.45;3.20;;;;;;;12.94;62.15;99448.41;5033438;28;20033;-72
2023/05/31 02:01:24;;;;;;;3.35;2.97;;;;;;;13.05;61.83;99456.28;5034653;28;20025;-62
2023/05/31 02:03:53;;;;;;;3.80;2.90;;;;;;;13.14;61.87;99461.75;5052961;28;20024;-62
2023/05/31 02:06:19;;;;;;;4.60;3.10;;;;;;;13.20;61.45;99467.38;5035412;28;20036;-62
2023/05/31 02:08:44;;;;;;;5.13;3.33;;;;;;;13.30;61.60;99461.94;5034259;28;20021;-61
2023/05/31 02:11:10;;;;;;;7.07;3.53;;;;;;;13.29;61.35;99460.25;5053212;28;20055;-61
2023/05/31 02:13:36;;;;;;;5.65;3.15;;;;;;;13.35;61.43;99458.78;5053040;28;20124;-62
2023/05/31 02:16:05;;;;;;;5.80;3.65;;;;;;;13.39;61.33;99459.34;5052519;28;20147;-62
2023/05/31 02:18:32;;;;;;;5.35;3.30;;;;;;;13.47;61.08;99472.91;5053028;28;20053;-62
2023/05/31 02:20:58;;;;;;;8.07;3.20;;;;;;;13.45;61.20;99469.50;5052544;28;20041;-63
2023/05/31 02:23:23;;;;;;;7.68;3.90;;;;;;;13.38;61.37;99455.78;5052978;28;20025;-61
2023/05/31 02:25:50;;;;;;;7.43;3.95;;;;;;;13.46;61.16;99468.50;5052944;28;20408;-61
2023/05/31 02:28:16;;;;;;;10.45;4.07;;;;;;;13.47;61.06;99470.19;5035423;28;20329;-61
2023/05/31 02:30:53;;;;;;;7.32;3.53;;;;;;;13.59;61.42;99476.22;5052054;28;20041;-61
2023/05/31 02:33:18;;;;;;;6.00;3.38;;;;;;;13.62;60.81;99454.38;5053343;28;20033;-62
2023/05/31 02:35:44;;;;;;;7.93;4.20;;;;;;;13.82;60.55;99460.47;5052558;28;20036;-61
2023/05/31 02:38:09;;;;;;;5.25;3.50;;;;;;;14.04;59.75;99451.06;5052536;28;20401;-62
2023/05/31 02:40:35;;;;;;;4.93;3.80;;;;;;;14.37;58.79;99460.41;5034254;28;20106;-61
2023/05/31 02:43:01;;;;;;;9.75;3.67;;;;;;;14.71;57.63;99457.81;5052816;28;20115;-61
2023/05/31 02:45:26;;;;;;;6.32;3.45;;;;;;;14.87;56.88;99450.78;5035285;28;20094;-61
2023/05/31 02:47:52;;;;;;;6.63;3.60;;;;;;;14.97;56.68;99451.53;5035140;28;20075;-62
2023/05/31 02:50:17;;;;;;;6.40;3.65;;;;;;;15.04;56.71;99457.97;5052126;28;20035;-61
2023/05/31 02:52:43;;;;;;;7.43;3.75;;;;;;;15.11;56.34;99457.31;5052116;28;20441;-62
2023/05/31 02:55:08;;;;;;;7.10;3.47;;;;;;;15.16;56.17;99452.25;5052133;28;20035;-62
2023/05/31 02:57:34;;;;;;;4.82;3.50;;;;;;;15.31;55.79;99453.34;5035021;28;20029;-60
2023/05/31 03:00:10;;;;;;;5.45;4.15;;;;;;;15.56;55.20;99457.97;5052320;28;20036;-63
2023/05/31 03:02:37;;;;;;;5.22;3.33;;;;;;;15.69;54.35;99461.00;5052297;28;20049;-62
2023/05/31 03:05:04;;;;;;;6.53;3.60;;;;;;;15.76;54.29;99464.72;5034757;28;20476;-62
2023/05/31 03:07:29;;;;;;;5.35;3.35;;;;;;;15.72;54.46;99466.06;5034879;28;20020;-68
2023/05/31 03:09:55;;;;;;;6.40;3.58;;;;;;;15.76;54.43;99458.50;5052519;28;20529;-62
2023/05/31 03:12:21;;;;;;;7.93;3.55;;;;;;;15.89;53.97;99464.25;5033824;28;20037;-62
2023/05/31 03:14:46;;;;;;;5.85;3.78;;;;;;;16.11;53.62;99458.38;5052131;28;20025;-61
2023/05/31 03:17:12;;;;;;;7.10;3.60;;;;;;;16.33;52.79;99452.28;5052309;28;20041;-62
2023/05/31 03:19:37;;;;;;;7.50;3.28;;;;;;;16.55;51.76;99452.59;5052052;28;20048;-62
2023/05/31 03:22:03;;;;;;;6.63;3.55;;;;;;;16.86;51.26;99453.66;5051853;28;20386;-62
2023/05/31 03:24:28;;;;;;;8.55;3.95;;;;;;;17.26;50.15;99459.16;5052298;28;20029;-61
2023/05/31 03:26:54;;;;;;;5.45;2.80;;;;;;;17.62;49.14;99461.31;5034774;28;20116;-61
2023/05/31 03:29:20;;;;;;;6.00;3.70;;;;;;;17.81;48.26;99442.91;5034221;28;20033;-61
2023/05/31 03:31:46;;;;;;;5.80;3.03;;;;;;;18.02;47.72;99472.91;5051809;28;20029;-63
2023/05/31 03:34:11;;;;;;;6.47;3.50;;;;;;;17.92;47.99;99474.97;5051043;28;20112;-62
2023/05/31 03:36:37;;;;;;;6.75;3.22;;;;;;;17.84;48.15;99469.63;5051458;28;20025;-62
2023/05/31 03:39:03;;;;;;;6.78;3.20;;;;;;;17.85;48.02;99474.00;5033802;28;20310;-62
2023/05/31 03:41:29;;;;;;;5.70;3.22;;;;;;;17.78;48.29;99473.88;5051950;28;20029;-61
2023/05/31 03:43:54;;;;;;;6.45;3.05;;;;;;;17.67;48.67;99480.56;5051379;28;20445;-61
2023/05/31 03:46:20;;;;;;;4.22;2.75;;;;;;;17.56;48.99;99473.69;5052003;28;20040;-62
2023/05/31 03:48:46;;;;;;;9.88;3.30;;;;;;;17.41;49.51;99475.47;5051916;28;20431;-61
2023/05/31 03:51:12;;;;;;;5.75;2.80;;;;;;;17.24;50.05;99478.25;5033191;28;20029;-62
2023/05/31 03:53:37;;;;;;;5.75;3.80;;;;;;;17.03;50.16;99449.94;5051698;28;20040;-62
2023/05/31 03:56:03;;;;;;;5.82;3.45;;;;;;;17.10;50.13;99473.56;5050810;28;20075;-64
2023/05/31 03:58:28;;;;;;;3.90;3.50;;;;;;;16.97;50.82;99474.94;5051274;28;20036;-63
2023/05/31 04:00:54;;;;;;;6.10;3.03;;;;;;;16.81;51.28;99475.84;5051525;28;20044;-63
2023/05/31 04:03:20;;;;;;;6.35;3.40;;;;;;;16.64;51.59;99475.03;5051443;28;20386;-61
2023/05/31 04:05:46;;;;;;;6.63;3.50;;;;;;;16.39;52.33;99460.72;5051561;28;20029;-63
2023/05/31 04:08:11;;;;;;;6.95;3.13;;;;;;;16.18;52.77;99460.25;5051506;28;20033;-63
2023/05/31 04:10:37;;;;;;;7.05;3.40;;;;;;;16.02;53.60;99477.25;5051230;28;20119;-63
2023/05/31 04:13:02;;;;;;;7.18;3.30;;;;;;;15.83;54.12;99473.00;5034208;28;20448;-72
2023/05/31 04:15:28;;;;;;;5.65;3.70;;;;;;;15.84;54.97;99473.84;5051885;28;20056;-66
2023/05/31 04:17:55;;;;;;;4.10;3.33;;;;;;;15.73;55.09;99458.84;5051193;28;20041;-67
2023/05/31 04:20:21;;;;;;;5.50;3.30;;;;;;;15.78;55.84;99448.38;5051170;28;20029;-66
2023/05/31 04:22:47;;;;;;;4.50;3.70;;;;;;;15.67;56.10;99425.25;5051282;28;20467;-66
2023/05/31 04:25:12;;;;;;;7.15;4.28;;;;;;;15.75;57.62;99436.03;5033859;28;20041;-67
2023/05/31 04:27:40;;;;;;;6.38;4.18;;;;;;;15.83;57.26;99461.38;5051469;28;20059;-66
2023/05/31 04:30:06;;;;;;;4.18;3.53;;;;;;;15.84;57.74;99453.09;5046268;28;20112;-66
2023/05/31 04:32:34;;;;;;;4.43;3.58;;;;;;;15.82;57.39;99447.03;5051626;28;20029;-67
2023/05/31 04:35:03;;;;;;;4.50;3.38;;;;;;;15.89;57.51;99466.13;5051431;28;20111;-67
2023/05/31 04:37:29;;;;;;;4.72;3.75;;;;;;;15.95;57.94;99467.31;5017451;28;20098;-68
2023/05/31 04:39:59;;;;;;;5.38;4.00;;;;;;;15.96;57.63;99472.53;5032864;28;20103;-67
2023/05/31 04:42:25;;;;;;;5.68;4.03;;;;;;;15.93;58.08;99471.03;5050294;28;20120;-69
2023/05/31 04:44:57;;;;;;;3.15;2.85;;;;;;;15.87;57.69;99468.94;5051227;28;20037;-67
2023/05/31 04:47:32;;;;;;;3.75;2.70;;;;;;;15.74;58.04;99479.41;5048734;28;20036;-67
2023/05/31 04:49:59;;;;;;;3.88;3.10;;;;;;;15.48;58.45;99483.88;5053764;28;20032;-67
2023/05/31 04:52:29;;;;;;;3.42;2.80;;;;;;;15.24;59.26;99465.78;5054281;28;20373;-67
2023/05/31 04:55:13;;;;;;;3.15;2.55;;;;;;;15.11;59.08;99457.31;5054273;28;20728;-68
2023/05/31 04:57:39;;;;;;;5.25;2.25;;;;;;;15.14;58.61;99463.22;5053838;28;20032;-68
2023/05/31 05:00:10;;;;;;;2.28;2.08;;;;;;;15.05;59.41;99473.13;5053529;28;20044;-69
2023/05/31 05:02:35;;;;;;;2.85;2.28;;;;;;;14.87;59.76;99472.34;5054649;28;20029;-69
2023/05/31 05:05:03;;;;;;;3.17;2.38;;;;;;;14.78;60.21;99464.25;5037539;28;20029;-67
2023/05/31 05:07:29;;;;;;;2.45;2.03;;;;;;;14.69;60.20;99475.09;5054428;28;20029;-66
2023/05/31 05:09:54;;;;;;;4.30;2.00;;;;;;;14.70;60.39;99474.09;5054282;28;20765;-68
2023/05/31 05:12:20;;;;;;;4.43;1.80;;;;;;;14.63;60.49;99466.66;5042299;28;20035;-67
2023/05/31 05:14:45;;;;;;;3.13;2.22;;;;;;;14.52;60.78;99468.78;5017194;28;20022;-68
2023/05/31 05:17:11;;;;;;;3.90;2.28;;;;;;;14.38;61.43;99462.13;5034225;28;20057;-67
2023/05/31 05:19:37;;;;;;;3.03;2.47;;;;;;;14.15;62.12;99459.91;5052480;28;20083;-69
2023/05/31 05:22:02;;;;;;;1.92;1.77;;;;;;;14.04;62.08;99467.22;5053638;28;20064;-67
2023/05/31 05:24:28;;;;;;;2.05;1.85;;;;;;;14.02;62.46;99474.59;5036273;28;20163;-68
2023/05/31 05:26:53;;;;;;;1.98;1.75;;;;;;;13.81;62.48;99452.56;5036050;28;20437;-68
2023/05/31 05:29:19;;;;;;;2.70;2.00;;;;;;;13.99;62.71;99484.88;5052499;28;20040;-68
2023/05/31 05:31:44;;;;;;;3.78;1.88;;;;;;;14.02;63.59;99489.94;5053764;28;20459;-68
2023/05/31 05:34:10;;;;;;;4.10;2.22;;;;;;;14.02;63.42;99479.16;5054167;28;20044;-68
2023/05/31 05:36:36;;;;;;;4.18;2.00;;;;;;;14.17;63.14;99501.00;5054502;28;20039;-67
2023/05/31 05:39:21;;;;;;;3.47;1.90;;;;;;;14.30;62.66;99489.81;5054002;28;20029;-69
2023/05/31 05:41:46;;;;;;;2.70;2.00;;;;;;;14.20;62.44;99497.97;5034288;28;20338;-68
2023/05/31 05:44:12;;;;;;;2.83;2.08;;;;;;;14.19;61.95;99480.97;5034396;28;20033;-69
2023/05/31 05:46:37;;;;;;;3.72;2.10;;;;;;;14.19;62.64;99486.34;5036157;28;20510;-67
2023/05/31 05:49:03;;;;;;;3.58;2.00;;;;;;;14.17;62.97;99485.66;5053290;28;20032;-67
2023/05/31 05:51:28;;;;;;;5.38;2.00;;;;;;;14.15;62.83;99482.28;5053432;28;20033;-67
2023/05/31 05:53:54;;;;;;;3.85;2.08;;;;;;;14.19;62.74;99475.59;5053245;28;20021;-66
2023/05/31 05:56:19;;;;;;;2.17;1.80;;;;;;;14.07;63.47;99482.22;5035356;28;20051;-67
2023/05/31 05:58:48;;;;;;;3.63;2.55;;;;;;;13.91;64.32;99482.94;5052994;28;20345;-69
2023/05/31 06:01:18;;;;;;;2.60;2.25;;;;;;;13.84;64.84;99493.47;5053211;28;20110;-67
2023/05/31 06:03:48;;;;;;;2.40;2.17;;;;;;;13.84;65.46;99484.53;5053436;28;20028;-67
2023/05/31 06:06:14;;;;;;;4.85;2.70;;;;;;;13.83;65.49;99477.47;5053225;28;20029;-67
2023/05/31 06:08:39;;;;;;;4.40;2.20;;;;;;;13.82;65.12;99473.94;5052398;28;20116;-69
2023/05/31 06:11:05;;;;;;;5.07;2.63;;;;;;;13.70;65.91;99464.38;5034577;28;20040;-68
2023/05/31 06:13:30;;;;;;;3.08;2.40;;;;;;;13.54;66.68;99463.25;5052538;28;20028;-67
2023/05/31 06:15:57;;;;;;;2.67;2.00;;;;;;;13.51;67.14;99478.81;5053032;28;20040;-68
2023/05/31 06:18:23;;;;;;;2.83;2.58;;;;;;;13.29;67.26;99444.13;5052057;28;20103;-67
2023/05/31 06:20:48;;;;;;;5.43;2.33;;;;;;;13.35;67.55;99458.78;5052032;28;20041;-67
2023/05/31 06:23:14;;;;;;;4.43;2.70;;;;;;;13.29;68.38;99457.56;5052695;28;20376;-68
2023/05/31 06:25:41;;;;;;;6.25;2.53;;;;;;;13.21;69.16;99449.38;5052585;28;20126;-68
2023/05/31 06:28:06;;;;;;;5.30;2.55;;;;;;;13.11;69.64;99440.53;5052477;28;20392;-67
2023/05/31 06:30:32;;;;;;;4.35;2.70;;;;;;;13.03;70.10;99431.41;5051966;28;20441;-67
2023/05/31 06:32:57;;;;;;;4.07;2.80;;;;;;;13.03;70.62;99438.59;5034716;28;20109;-65
2023/05/31 06:35:23;;;;;;;6.57;3.33;;;;;;;12.89;70.73;99413.91;5052186;28;20021;-69
2023/05/31 06:37:51;;;;;;;5.68;2.70;;;;;;;13.03;71.27;99431.41;5034444;28;20029;-67
2023/05/31 06:40:17;;;;;;;8.13;2.80;;;;;;;12.91;71.36;99409.25;5034859;28;20028;-68
2023/05/31 06:42:43;;;;;;;4.68;3.10;;;;;;;12.93;71.56;99392.97;5052229;28;20083;-68
2023/05/31 06:45:09;;;;;;;5.40;3.78;;;;;;;13.21;71.82;99431.44;5052290;28;20048;-71
2023/05/31 06:47:34;;;;;;;6.38;3.30;;;;;;;13.18;71.13;99418.28;5034027;28;20100;-67
2023/05/31 06:50:02;;;;;;;6.60;3.17;;;;;;;13.36;70.94;99433.59;5052306;28;20128;-68
2023/05/31 06:52:29;;;;;;;5.32;2.50;;;;;;;13.39;70.77;99440.50;5052056;28;20472;-67
2023/05/31 06:54:54;;;;;;;4.70;2.80;;;;;;;13.40;70.94;99436.81;5034616;28;20060;-67
2023/05/31 06:57:20;;;;;;;8.13;2.70;;;;;;;13.38;70.41;99434.28;5052335;28;20452;-67
2023/05/31 06:59:45;;;;;;;5.35;2.90;;;;;;;13.38;70.87;99430.75;5048158;28;20029;-71
2023/05/31 07:02:11;;;;;;;5.88;3.40;;;;;;;13.45;71.60;99431.88;5027952;28;20032;-70
2023/05/31 07:04:36;;;;;;;5.63;3.08;;;;;;;13.44;70.80;99430.19;5032319;28;20029;-68
2023/05/31 07:07:03;;;;;;;4.93;2.80;;;;;;;13.45;70.41;99439.94;5051839;28;20060;-68
2023/05/31 07:09:29;;;;;;;4.40;2.97;;;;;;;13.46;71.46;99431.72;5051075;28;20025;-70
2023/05/31 07:11:54;;;;;;;5.68;2.97;;;;;;;13.49;71.74;99420.66;5051798;28;20041;-69
2023/05/31 07:14:21;;;;;;;6.45;3.08;;;;;;;13.60;70.84;99427.66;5050815;28;20162;-69
2023/05/31 07:16:48;;;;;;;4.68;2.60;;;;;;;13.60;70.42;99433.03;5051561;28;20033;-70
2023/05/31 07:19:13;;;;;;;4.40;2.40;;;;;;;13.59;70.10;99431.34;5051727;28;20069;-68
2023/05/31 07:21:39;;;;;;;3.80;2.53;;;;;;;13.39;69.83;99401.03;5051863;28;20043;-67
2023/05/31 07:24:05;;;;;;;6.47;2.60;;;;;;;13.60;70.26;99421.41;5051591;28;20433;-70
2023/05/31 07:26:30;;;;;;;3.45;2.22;;;;;;;13.60;70.35;99408.81;5051557;28;20039;-68
2023/05/31 07:28:56;;;;;;;5.13;2.80;;;;;;;13.60;70.09;99400.75;5051927;28;20368;-69
2023/05/31 07:31:22;;;;;;;3.22;2.53;;;;;;;13.53;70.22;99404.22;5050979;28;20021;-69
2023/05/31 07:33:47;;;;;;;3.80;2.40;;;;;;;13.55;70.73;99407.59;5051462;28;20417;-68
2023/05/31 07:36:13;;;;;;;3.22;2.47;;;;;;;13.66;70.81;99425.34;5051122;28;20029;-68
2023/05/31 07:38:39;;;;;;;4.80;2.97;;;;;;;13.72;70.98;99406.75;5051993;28;20040;-67
2023/05/31 07:41:04;;;;;;;4.22;3.05;;;;;;;13.82;70.66;99409.34;5051027;28;20021;-67
2023/05/31 07:43:30;;;;;;;4.65;2.45;;;;;;;14.03;69.88;99410.88;5033355;28;20024;-66
2023/05/31 07:45:56;;;;;;;4.22;2.35;;;;;;;14.10;68.33;99409.22;5051148;28;20523;-69
2023/05/31 07:48:23;;;;;;;4.75;2.20;;;;;;;14.23;68.15;99413.34;5051163;28;20032;-69
2023/05/31 07:50:49;;;;;;;3.35;2.20;;;;;;;14.35;67.80;99412.09;5041775;28;20298;-67
2023/05/31 07:53:15;;;;;;;4.38;2.88;;;;;;;14.47;67.04;99410.84;5050819;28;20032;-68
2023/05/31 07:55:41;;;;;;;15.10;2.40;;;;;;;14.59;66.62;99405.16;5051201;28;20032;-67
2023/05/31 07:58:07;;;;;;;4.03;2.40;;;;;;;14.64;66.25;99383.97;5051750;28;20029;-69
2023/05/31 08:00:33;;;;;;;3.95;2.20;;;;;;;14.96;65.92;99400.47;5048336;28;20033;-67
2023/05/31 08:02:58;;;;;;;2.50;1.83;;;;;;;15.10;64.76;99396.28;5051358;28;20102;-64
2023/05/31 08:05:24;;;;;;;3.33;1.75;;;;;;;15.61;63.41;99396.25;5050911;28;20509;-65
2023/05/31 08:07:49;;;;;;;2.03;1.58;;;;;;;16.21;60.24;99384.25;5050775;28;20028;-66
2023/05/31 08:10:16;;;;;;;3.47;1.70;;;;;;;17.05;58.26;99395.69;5047598;28;20021;-67
2023/05/31 08:12:42;;;;;;;2.53;1.20;;;;;;;17.43;55.57;99393.06;5051316;28;20480;-64
2023/05/31 08:15:08;;;;;;;6.97;1.48;;;;;;;17.52;54.26;99398.44;5050346;28;20049;-66
2023/05/31 08:17:35;;;;;;;4.25;1.75;;;;;;;17.38;54.37;99378.41;5051000;28;20064;-67
2023/05/31 08:20:01;;;;;;;2.42;1.42;;;;;;;17.29;53.93;99402.81;5051271;28;20692;-66
2023/05/31 08:22:27;;;;;;;5.13;1.67;;;;;;;17.02;55.11;99406.84;5054929;28;20120;-66
2023/05/31 08:24:52;;;;;;;4.80;1.70;;;;;;;16.67;55.25;99412.53;5054223;28;20108;-67
2023/05/31 08:27:18;;;;;;;5.13;1.40;;;;;;;16.40;56.60;99397.56;5055231;28;20190;-67
2023/05/31 08:29:44;;;;;;;3.67;1.20;;;;;;;16.09;57.00;99407.22;5054705;28;20029;-68
2023/05/31 08:32:10;;;;;;;3.53;1.58;;;;;;;15.85;57.87;99405.34;5052829;28;20107;-67
2023/05/31 08:34:35;;;;;;;4.53;1.30;;;;;;;15.81;57.62;99415.63;5018213;28;20028;-66
2023/05/31 08:37:01;;;;;;;1.75;1.50;;;;;;;15.62;57.91;99414.94;5053976;28;20031;-66
2023/05/31 08:39:27;;;;;;;1.50;1.40;;;;;;;15.45;58.12;99421.34;5053921;28;20051;-66
2023/05/31 08:42:00;;;;;;;0.98;0.90;;;;;;;15.39;57.95;99422.84;5047116;28;20480;-66
2023/05/31 08:44:26;;;;;;;1.58;1.42;;;;;;;15.16;58.19;99428.00;5045641;28;20111;-66
2023/05/31 08:46:51;;;;;;;3.33;1.60;;;;;;;14.93;59.21;99431.28;5047658;28;20075;-68
2023/05/31 08:49:18;;;;;;;1.42;1.33;;;;;;;14.78;59.87;99425.66;5034538;28;20397;-67
2023/05/31 08:51:47;;;;;;;4.35;1.40;;;;;;;14.70;60.07;99437.19;5045532;28;20029;-66
2023/05/31 08:54:13;;;;;;;5.18;1.65;;;;;;;14.72;59.92;99439.78;5045886;28;20040;-67
2023/05/31 08:56:39;;;;;;;3.40;1.50;;;;;;;14.66;59.14;99435.84;5044228;28;20392;-65
2023/05/31 08:59:09;;;;;;;4.72;1.30;;;;;;;14.43;59.10;99430.16;5050962;28;20028;-66
2023/05/31 09:01:37;;;;;;;5.30;1.55;;;;;;;14.16;60.05;99429.31;5047664;28;20029;-69
2023/05/31 09:04:04;;;;;;;3.35;2.00;;;;;;;14.07;60.49;99441.84;5053890;28;20064;-68
2023/05/31 09:06:30;;;;;;;4.03;1.60;;;;;;;13.84;60.48;99445.03;5052361;28;20044;-68
2023/05/31 09:08:55;;;;;;;5.60;2.00;;;;;;;13.62;61.47;99439.09;5016413;28;20029;-69
2023/05/31 09:11:23;;;;;;;2.17;1.75;;;;;;;13.49;61.76;99439.47;5044446;28;20033;-70
2023/05/31 09:13:48;;;;;;;2.80;1.70;;;;;;;13.41;61.98;99441.19;5052915;28;20033;-65
2023/05/31 09:16:14;;;;;;;3.58;1.80;;;;;;;13.41;62.26;99438.50;5053566;28;20032;-66
2023/05/31 09:18:39;;;;;;;5.50;3.17;;;;;;;13.42;62.04;99446.44;5050635;28;20041;-69
2023/05/31 09:21:10;;;;;;;3.60;1.88;;;;;;;13.38;61.50;99446.88;5018892;28;20037;-68
2023/05/31 09:23:36;;;;;;;2.92;1.90;;;;;;;13.26;62.24;99438.19;5036845;28;20091;-71
2023/05/31 09:26:06;;;;;;;5.43;4.25;;;;;;;13.25;62.52;99426.56;5035803;28;20032;-62
2023/05/31 09:28:31;;;;;;;3.28;1.95;;;;;;;12.98;62.74;99406.78;5035388;28;20029;-61
2023/05/31 09:31:07;;;;;;;5.60;3.10;;;;;;;13.29;62.72;99430.69;5052471;28;20028;-62
2023/05/31 09:33:43;;;;;;;2.17;1.77;;;;;;;13.28;62.29;99412.84;5035400;28;20409;-61
2023/05/31 09:36:12;;;;;;;4.72;1.92;;;;;;;13.45;61.40;99439.94;5051572;28;20029;-62
2023/05/31 09:38:39;;;;;;;5.97;2.80;;;;;;;13.69;61.68;99442.03;5033330;28;20029;-58
2023/05/31 09:41:18;;;;;;;3.30;2.15;;;;;;;14.05;60.58;99435.78;5033922;28;20344;-62
2023/05/31 09:43:45;;;;;;;5.43;2.45;;;;;;;14.18;58.31;99409.28;5048785;28;20402;-59
2023/05/31 09:46:18;;;;;;;2.83;2.00;;;;;;;14.52;58.05;99437.28;5053850;28;20036;-59
2023/05/31 09:48:56;;;;;;;4.25;3.20;;;;;;;14.83;57.88;99417.09;5053958;28;20043;-57
2023/05/31 09:51:21;;;;;;;2.63;2.30;;;;;;;15.24;55.76;99429.88;5035497;28;20091;-66
2023/05/31 09:53:49;;;;;;;4.97;2.50;;;;;;;15.32;55.22;99425.34;5036455;28;20033;-57
2023/05/31 09:56:19;;;;;;;3.33;2.30;;;;;;;15.30;54.81;99440.84;5053109;28;20103;-60
2023/05/31 09:58:45;;;;;;;4.45;2.38;;;;;;;15.17;54.77;99429.69;5052085;28;20373;-59
2023/05/31 10:01:10;;;;;;;3.88;2.35;;;;;;;15.25;54.88;99426.16;5053056;28;20025;-58
2023/05/31 10:03:38;;;;;;;3.03;2.40;;;;;;;15.20;54.94;99437.47;5052670;28;20025;-60
2023/05/31 10:06:04;;;;;;;4.07;2.10;;;;;;;14.97;55.07;99432.66;5019287;28;20085;-54
2023/05/31 10:08:33;;;;;;;2.75;2.30;;;;;;;14.94;54.97;99441.03;5052686;28;20032;-55
2023/05/31 10:11:00;;;;;;;4.20;2.50;;;;;;;14.82;55.41;99445.88;5052674;28;20460;-55
2023/05/31 10:13:27;;;;;;;4.03;2.30;;;;;;;14.72;55.50;99451.41;5035407;28;20086;-51
2023/05/31 10:15:56;;;;;;;3.65;2.08;;;;;;;14.70;55.25;99445.28;5053327;28;20036;-58
2023/05/31 10:18:27;;;;;;;2.65;2.00;;;;;;;14.47;55.56;99456.63;5051214;28;20045;-56
2023/05/31 10:20:58;;;;;;;3.38;2.85;;;;;;;14.42;56.21;99452.72;5052667;28;20372;-62
2023/05/31 10:23:25;;;;;;;3.63;2.13;;;;;;;14.31;55.94;99470.78;5035421;28;20025;-61
2023/05/31 10:25:56;;;;;;;3.33;2.30;;;;;;;14.33;56.73;99466.09;5052510;28;20036;-60
2023/05/31 10:28:27;;;;;;;4.90;2.80;;;;;;;14.27;56.71;99473.97;5052450;28;20108;-60
2023/05/31 10:30:54;;;;;;;5.38;2.42;;;;;;;14.09;57.20;99477.53;5052522;28;20033;-58
2023/05/31 10:33:21;;;;;;;4.43;2.10;;;;;;;14.07;56.49;99479.53;5047867;28;20362;-53
2023/05/31 10:35:48;;;;;;;5.05;2.33;;;;;;;13.79;57.59;99474.25;5052455;28;20045;-78
2023/05/31 10:38:14;;;;;;;2.15;1.95;;;;;;;13.69;57.41;99476.16;5031805;28;20021;-65
2023/05/31 10:40:49;;;;;;;3.60;2.28;;;;;;;13.61;57.47;99472.38;5052664;28;20040;-65
2023/05/31 10:43:28;;;;;;;2.58;2.08;;;;;;;13.60;57.73;99489.53;5052548;28;20029;-65
2023/05/31 10:46:02;;;;;;;3.08;2.22;;;;;;;13.55;57.35;99482.91;5034039;28;20105;-66
2023/05/31 10:48:43;;;;;;;6.20;1.98;;;;;;;13.54;57.50;99484.75;5051733;28;20449;-65
2023/05/31 10:51:10;;;;;;;23.25;3.20;;;;;;;13.45;57.39;99489.19;5052827;28;20468;-66
2023/05/31 10:53:38;;;;;;;6.25;2.38;;;;;;;13.42;58.71;99491.28;5052503;28;20043;-66
2023/05/31 10:56:10;;;;;;;6.35;2.90;;;;;;;13.40;59.01;99499.53;5052440;28;20412;-65
2023/05/31 10:58:41;;;;;;;5.80;2.92;;;;;;;13.39;59.37;99489.78;5052087;28;20036;-66
2023/05/31 11:01:09;;;;;;;14.32;3.35;;;;;;;13.11;59.84;99462.88;5052720;28;20029;-66
2023/05/31 11:03:36;;;;;;;8.25;2.63;;;;;;;13.30;59.34;99502.28;5051885;28;20147;-66
2023/05/31 11:06:06;;;;;;;4.25;3.13;;;;;;;13.32;59.30;99507.47;5036822;28;20105;-64
2023/05/31 11:08:32;;;;;;;7.35;3.00;;;;;;;12.91;60.18;99459.44;5052345;28;20041;-65
2023/05/31 11:11:44;;;;;;;6.57;2.65;;;;;;;13.28;60.04;99503.41;5051957;28;20039;-67
2023/05/31 11:14:28;;;;;;;7.00;3.55;;;;;;;13.26;60.09;99491.97;5051820;28;20072;-65
2023/05/31 11:16:59;;;;;;;5.53;2.50;;;;;;;13.21;60.37;99503.16;5051212;28;20059;-66
2023/05/31 11:19:28;;;;;;;6.03;2.70;;;;;;;13.25;60.38;99499.16;5052475;28;20102;-65
2023/05/31 11:22:05;;;;;;;9.32;2.80;;;;;;;13.37;60.05;99505.19;5052253;28;20531;-67
2023/05/31 11:24:30;;;;;;;4.53;2.78;;;;;;;13.45;59.29;99505.34;5033432;28;20108;-69
2023/05/31 11:27:00;;;;;;;5.30;2.95;;;;;;;13.49;59.61;99504.03;5052120;28;20128;-68
2023/05/31 11:30:03;;;;;;;5.00;2.72;;;;;;;13.72;59.56;99517.06;5052107;28;20052;-69
2023/05/31 11:32:33;;;;;;;5.13;3.13;;;;;;;13.63;60.80;99518.81;4951631;28;20078;-68
2023/05/31 11:35:03;;;;;;;4.40;2.80;;;;;;;13.66;60.79;99506.03;5035637;28;20079;-69
2023/05/31 11:37:31;;;;;;;5.93;3.35;;;;;;;13.72;59.72;99505.44;5051038;28;20120;-70